createdAt,value
2022-08-11T00:02:15.336Z,18.85
2022-08-11T00:04:49.281Z,18.84
2022-08-11T00:07:23.333Z,18.82
2022-08-11T00:09:57.753Z,18.79
2022-08-11T00:12:31.260Z,18.73
2022-08-11T00:15:04.494Z,18.68
2022-08-11T00:17:39.776Z,18.66
2022-08-11T00:20:17.504Z,18.59
2022-08-11T00:22:51.850Z,18.58
2022-08-11T00:25:25.590Z,18.55
2022-08-11T00:27:58.750Z,18.48
2022-08-11T00:30:40.533Z,18.46
2022-08-11T00:33:15.171Z,18.44
2022-08-11T00:35:54.595Z,18.42
2022-08-11T00:38:35.360Z,18.39
2022-08-11T00:41:19.823Z,18.37
2022-08-11T00:44:13.808Z,18.40
2022-08-11T00:46:58.746Z,18.35
2022-08-11T00:49:44.165Z,18.31
2022-08-11T00:52:30.758Z,18.26
2022-08-11T00:55:37.644Z,18.21
2022-08-11T00:58:51.030Z,18.19
2022-08-11T01:01:36.299Z,18.19
2022-08-11T01:04:55.546Z,18.18
2022-08-11T01:08:03.626Z,18.11
2022-08-11T01:10:53.936Z,18.09
2022-08-11T01:14:05.432Z,18.02
2022-08-11T01:17:35.830Z,17.98
2022-08-11T01:20:47.246Z,17.96
2022-08-11T01:24:20.174Z,17.96
2022-08-11T01:27:25.778Z,17.94
2022-08-11T01:30:44.469Z,17.88
2022-08-11T01:33:32.237Z,17.83
2022-08-11T01:36:34.090Z,17.84
2022-08-11T01:39:33.843Z,17.78
2022-08-11T01:42:56.920Z,17.76
2022-08-11T01:45:37.627Z,17.75
2022-08-11T01:48:20.651Z,17.72
2022-08-11T01:51:03.879Z,17.69
2022-08-11T01:53:53.231Z,17.66
2022-08-11T01:56:36.783Z,17.66
2022-08-11T01:59:17.136Z,17.65
2022-08-11T02:02:05.132Z,17.64
2022-08-11T02:04:44.127Z,17.60
2022-08-11T02:07:31.375Z,17.57
2022-08-11T02:10:39.393Z,17.54
2022-08-11T02:13:19.357Z,17.50
2022-08-11T02:16:14.779Z,17.46
2022-08-11T02:19:10.035Z,17.46
2022-08-11T02:22:09.211Z,17.45
2022-08-11T02:24:47.596Z,17.44
2022-08-11T02:27:26.337Z,17.39
2022-08-11T02:30:05.098Z,17.38
2022-08-11T02:33:00.274Z,17.35
2022-08-11T02:35:45.806Z,17.31
2022-08-11T02:38:25.958Z,17.27
2022-08-11T02:41:29.419Z,17.22
2022-08-11T02:44:18.651Z,17.20
2022-08-11T02:47:03.745Z,17.18
2022-08-11T02:50:06.304Z,17.17
2022-08-11T02:52:48.612Z,17.13
2022-08-11T02:55:56.403Z,17.06
2022-08-11T02:58:27.855Z,17.01
2022-08-11T03:01:14.039Z,16.99
2022-08-11T03:03:54.332Z,16.97
2022-08-11T03:06:37.007Z,16.96
2022-08-11T03:09:18.262Z,16.96
2022-08-11T03:12:18.847Z,16.94
2022-08-11T03:15:17.374Z,16.92
2022-08-11T03:18:07.106Z,16.89
2022-08-11T03:20:45.809Z,16.88
2022-08-11T03:23:28.234Z,16.85
2022-08-11T03:26:08.592Z,16.87
2022-08-11T03:28:48.193Z,16.86
2022-08-11T03:31:26.170Z,16.82
2022-08-11T03:34:07.569Z,16.77
2022-08-11T03:37:16.746Z,16.73
2022-08-11T03:40:01.021Z,16.70
2022-08-11T03:42:44.537Z,16.67
2022-08-11T03:45:27.160Z,16.67
2022-08-11T03:48:10.145Z,16.67
2022-08-11T03:51:06.006Z,16.66
2022-08-11T03:54:16.043Z,16.67
2022-08-11T03:57:34.906Z,16.67
2022-08-11T04:00:30.660Z,16.67
2022-08-11T04:03:40.047Z,16.68
2022-08-11T04:06:51.135Z,16.68
2022-08-11T04:09:56.522Z,16.67
2022-08-11T04:12:48.037Z,16.70
2022-08-11T04:16:00.891Z,16.73
2022-08-11T04:19:24.762Z,16.71
2022-08-11T04:22:30.422Z,16.69
2022-08-11T04:25:58.146Z,16.69
2022-08-11T04:28:55.730Z,16.69
2022-08-11T04:31:51.930Z,16.71
2022-08-11T04:34:42.496Z,16.78
2022-08-11T04:37:54.184Z,16.84
2022-08-11T04:40:56.013Z,16.92
2022-08-11T04:44:08.214Z,16.97
2022-08-11T04:47:09.595Z,17.00
2022-08-11T04:50:20.123Z,17.02
2022-08-11T04:53:44.568Z,17.06
2022-08-11T04:56:39.419Z,17.14
2022-08-11T05:00:01.681Z,17.16
2022-08-11T05:03:14.476Z,17.24
2022-08-11T05:06:02.671Z,17.31
2022-08-11T05:09:19.511Z,17.39
2022-08-11T05:12:21.104Z,17.41
2022-08-11T05:15:13.887Z,17.47
2022-08-11T05:18:13.987Z,17.55
2022-08-11T05:21:10.041Z,17.59
2022-08-11T05:24:07.455Z,17.66
2022-08-11T05:27:13.530Z,17.71
2022-08-11T05:30:07.636Z,17.81
2022-08-11T05:33:02.330Z,17.88
2022-08-11T05:36:02.048Z,17.95
2022-08-11T05:38:55.849Z,18.08
2022-08-11T05:41:49.712Z,18.20
2022-08-11T05:44:42.493Z,18.48
2022-08-11T05:47:41.725Z,18.78
2022-08-11T05:50:37.246Z,19.26
2022-08-11T05:53:30.596Z,19.56
2022-08-11T05:56:19.448Z,19.76
2022-08-11T05:58:53.875Z,19.88
2022-08-11T06:01:32.023Z,19.98
2022-08-11T06:04:17.664Z,20.06
2022-08-11T06:06:57.543Z,20.10
2022-08-11T06:09:34.093Z,20.14
2022-08-11T06:12:09.668Z,20.12
2022-08-11T06:14:44.348Z,20.05
2022-08-11T06:17:24.202Z,20.12
2022-08-11T06:20:06.098Z,20.15
2022-08-11T06:22:42.870Z,20.17
2022-08-11T06:25:16.981Z,20.23
2022-08-11T06:27:56.269Z,20.27
2022-08-11T06:30:40.839Z,20.37
2022-08-11T06:33:19.115Z,20.54
2022-08-11T06:36:01.201Z,20.67
2022-08-11T06:38:53.748Z,21.08
2022-08-11T06:41:32.630Z,21.29
2022-08-11T06:44:19.233Z,21.24
2022-08-11T06:46:56.029Z,21.24
2022-08-11T06:49:56.047Z,21.23
2022-08-11T06:52:35.026Z,21.30
2022-08-11T06:55:55.804Z,21.24
2022-08-11T06:58:32.085Z,21.33
2022-08-11T07:01:10.799Z,21.47
2022-08-11T07:03:47.531Z,21.68
2022-08-11T07:06:41.593Z,21.78
2022-08-11T07:10:04.498Z,21.81
2022-08-11T07:12:59.782Z,21.84
2022-08-11T07:16:12.910Z,21.90
2022-08-11T07:18:59.760Z,21.96
2022-08-11T07:22:00.965Z,22.15
2022-08-11T07:24:59.549Z,22.18
2022-08-11T07:28:00.677Z,22.23
2022-08-11T07:30:38.574Z,22.38
2022-08-11T07:33:19.017Z,22.45
2022-08-11T07:36:12.677Z,22.59
2022-08-11T07:38:51.425Z,22.71
2022-08-11T07:41:28.831Z,22.83
2022-08-11T07:44:09.822Z,23.04
2022-08-11T07:47:02.154Z,23.18
2022-08-11T07:49:55.482Z,23.28
2022-08-11T07:52:32.349Z,23.34
2022-08-11T07:55:13.125Z,23.45
2022-08-11T07:58:15.994Z,23.54
2022-08-11T08:01:22.454Z,23.67
2022-08-11T08:04:14.114Z,23.72
2022-08-11T08:07:04.772Z,23.91
2022-08-11T08:09:56.372Z,24.10
2022-08-11T08:12:49.050Z,24.33
2022-08-11T08:15:41.330Z,24.43
2022-08-11T08:18:26.259Z,24.61
2022-08-11T08:21:12.017Z,24.85
2022-08-11T08:23:47.709Z,24.95
2022-08-11T08:26:48.307Z,25.31
2022-08-11T08:29:45.848Z,25.87
2022-08-11T08:32:19.643Z,27.61
2022-08-11T08:34:55.570Z,30.51
2022-08-11T08:37:45.733Z,32.45
2022-08-11T08:40:20.769Z,33.85
2022-08-11T08:42:56.984Z,33.83
2022-08-11T08:45:37.692Z,31.81
2022-08-11T08:48:14.231Z,29.67
2022-08-11T08:51:11.760Z,28.72
2022-08-11T08:53:53.392Z,28.04
2022-08-11T08:56:29.408Z,27.52
2022-08-11T08:59:03.862Z,27.09
2022-08-11T09:01:44.632Z,26.81
2022-08-11T09:04:21.729Z,26.41
2022-08-11T09:06:56.698Z,26.41
2022-08-11T09:09:29.975Z,26.40
2022-08-11T09:12:05.621Z,26.50
2022-08-11T09:14:58.137Z,26.54
2022-08-11T09:17:36.582Z,26.61
2022-08-11T09:20:13.635Z,26.65
2022-08-11T09:26:19.343Z,26.91
2022-08-11T09:28:53.662Z,26.89
2022-08-11T09:31:27.043Z,26.95
2022-08-11T09:34:02.590Z,27.05
2022-08-11T09:36:53.756Z,27.03
2022-08-11T09:39:46.661Z,27.14
2022-08-11T09:42:23.770Z,27.30
2022-08-11T09:44:57.656Z,27.33
2022-08-11T09:47:31.608Z,27.52
2022-08-11T09:50:07.871Z,27.65
2022-08-11T09:52:57.102Z,27.63
2022-08-11T09:55:35.537Z,27.54
2022-08-11T09:58:42.806Z,27.63
2022-08-11T10:01:27.313Z,27.73
2022-08-11T10:04:04.948Z,27.77
2022-08-11T10:06:58.577Z,27.62
2022-08-11T10:09:39.777Z,27.56
2022-08-11T10:12:17.799Z,27.42
2022-08-11T10:15:13.202Z,27.54
2022-08-11T10:18:03.903Z,27.50
2022-08-11T10:20:39.024Z,27.60
2022-08-11T10:23:32.413Z,27.77
2022-08-11T10:26:23.999Z,27.79
2022-08-11T10:29:12.525Z,27.78
2022-08-11T10:32:13.337Z,27.79
2022-08-11T10:34:49.749Z,27.86
2022-08-11T10:38:08.464Z,27.74
2022-08-11T10:40:29.632Z,27.64
2022-08-11T10:43:13.396Z,27.61
2022-08-11T10:46:07.799Z,27.49
2022-08-11T10:48:41.339Z,27.66
2022-08-11T10:51:14.596Z,27.77
2022-08-11T10:54:07.524Z,27.90
2022-08-11T10:57:04.106Z,28.06
2022-08-11T10:59:37.407Z,28.03
2022-08-11T11:02:15.031Z,28.06
2022-08-11T11:05:01.039Z,27.90
2022-08-11T11:07:44.164Z,27.78
2022-08-11T11:10:17.744Z,27.89
2022-08-11T11:13:13.996Z,27.85
2022-08-11T11:16:06.484Z,27.73
2022-08-11T11:18:39.860Z,27.78
2022-08-11T11:21:19.769Z,27.90
2022-08-11T11:24:06.121Z,27.93
2022-08-11T11:26:50.321Z,28.00
2022-08-11T11:29:47.952Z,28.02
2022-08-11T11:32:28.611Z,28.08
2022-08-11T11:35:18.269Z,28.02
2022-08-11T11:38:04.525Z,28.10
2022-08-11T11:40:40.940Z,28.13
2022-08-11T11:43:14.069Z,28.22
2022-08-11T11:45:48.612Z,28.29
2022-08-11T11:48:21.781Z,28.31
2022-08-11T11:50:58.159Z,28.30
2022-08-11T11:53:31.940Z,28.28
2022-08-11T11:56:06.297Z,28.34
2022-08-11T11:58:59.037Z,28.41
2022-08-11T12:01:34.062Z,28.40
2022-08-11T12:04:07.886Z,28.39
2022-08-11T12:06:42.707Z,28.50
2022-08-11T12:09:18.564Z,28.53
2022-08-11T12:12:09.330Z,28.60
2022-08-11T12:14:42.673Z,28.68
2022-08-11T12:17:17.114Z,28.66
2022-08-11T12:19:50.764Z,28.64
2022-08-11T12:22:41.765Z,28.70
2022-08-11T12:25:32.910Z,28.63
2022-08-11T12:28:06.264Z,28.67
2022-08-11T12:33:24.057Z,28.74
2022-08-11T12:36:00.922Z,28.66
2022-08-11T12:38:36.060Z,28.57
2022-08-11T12:41:28.473Z,28.71
2022-08-11T12:44:36.792Z,28.71
2022-08-11T12:47:10.908Z,28.59
2022-08-11T12:50:05.691Z,28.55
2022-08-11T12:52:56.995Z,28.73
2022-08-11T12:56:03.697Z,28.84
2022-08-11T12:58:42.243Z,28.72
2022-08-11T13:01:32.824Z,28.68
2022-08-11T13:04:24.429Z,28.70
2022-08-11T13:07:03.145Z,28.71
2022-08-11T13:09:36.323Z,28.89
2022-08-11T13:12:27.263Z,28.85
2022-08-11T13:15:01.764Z,28.87
2022-08-11T13:17:42.349Z,28.85
2022-08-11T13:20:20.229Z,28.83
2022-08-11T13:22:56.607Z,28.89
2022-08-11T13:25:32.701Z,28.86
2022-08-11T13:28:07.214Z,28.99
2022-08-11T13:30:59.177Z,29.04
2022-08-11T13:33:33.572Z,28.94
2022-08-11T13:36:08.271Z,28.79
2022-08-11T13:38:49.515Z,28.88
2022-08-11T13:41:39.556Z,28.72
2022-08-11T13:44:18.185Z,28.60
2022-08-11T13:46:53.540Z,28.57
2022-08-11T13:49:28.076Z,28.63
2022-08-11T13:52:02.165Z,28.76
2022-08-11T13:54:39.375Z,28.73
2022-08-11T13:58:06.294Z,28.66
2022-08-11T14:00:27.673Z,28.55
2022-08-11T14:03:01.897Z,28.69
2022-08-11T14:05:40.296Z,28.80
2022-08-11T14:08:33.952Z,28.78
2022-08-11T14:12:23.644Z,28.85
2022-08-11T14:14:35.390Z,28.86
2022-08-11T14:17:09.875Z,28.89
2022-08-11T14:19:48.545Z,28.82
2022-08-11T14:22:22.239Z,28.89
2022-08-11T14:24:56.615Z,28.80
2022-08-11T14:28:29.785Z,28.71
2022-08-11T14:30:41.587Z,28.68
2022-08-11T14:33:16.765Z,28.57
2022-08-11T14:35:51.609Z,28.66
2022-08-11T14:38:24.692Z,28.69
2022-08-11T14:41:15.524Z,28.76
2022-08-11T14:44:13.655Z,28.88
2022-08-11T14:47:24.759Z,28.88
2022-08-11T14:50:11.668Z,28.97
2022-08-11T14:52:51.304Z,29.01
2022-08-11T14:55:46.897Z,28.85
2022-08-11T14:58:24.013Z,28.88
2022-08-11T15:00:59.959Z,28.75
2022-08-11T15:03:33.752Z,28.84
2022-08-11T15:06:07.369Z,28.77
2022-08-11T15:08:55.851Z,28.85
2022-08-11T15:11:50.176Z,28.73
2022-08-11T15:14:37.226Z,28.74
2022-08-11T15:17:13.274Z,28.59
2022-08-11T15:20:01.178Z,28.50
2022-08-11T15:22:51.303Z,28.49
2022-08-11T15:25:24.347Z,28.52
2022-08-11T15:28:17.050Z,28.45
2022-08-11T15:31:12.902Z,28.47
2022-08-11T15:34:08.484Z,28.48
2022-08-11T15:37:01.342Z,28.57
2022-08-11T15:39:59.261Z,28.60
2022-08-11T15:42:52.050Z,28.45
2022-08-11T15:45:44.660Z,28.44
2022-08-11T15:48:29.797Z,28.52
2022-08-11T15:51:10.776Z,28.49
2022-08-11T15:53:56.622Z,28.44
2022-08-11T15:56:33.413Z,28.40
2022-08-11T15:59:42.521Z,28.28
2022-08-11T16:02:39.278Z,28.25
2022-08-11T16:05:45.228Z,28.23
2022-08-11T16:08:14.254Z,28.24
2022-08-11T16:10:48.212Z,28.16
2022-08-11T16:13:43.257Z,28.18
2022-08-11T16:16:18.640Z,28.10
2022-08-11T16:18:55.815Z,28.21
2022-08-11T16:21:36.152Z,28.14
2022-08-11T16:27:04.133Z,27.99
2022-08-11T16:27:13.657Z,27.94
2022-08-11T16:29:48.862Z,27.92
2022-08-11T16:32:24.249Z,27.97
2022-08-11T16:35:17.494Z,27.91
2022-08-11T16:38:10.530Z,27.87
2022-08-11T16:40:46.235Z,27.86
2022-08-11T16:43:39.787Z,27.78
2022-08-11T16:46:40.079Z,27.72
2022-08-11T16:49:17.974Z,27.65
2022-08-11T16:51:51.075Z,27.60
2022-08-11T16:54:24.411Z,27.63
2022-08-11T16:57:20.125Z,27.62
2022-08-11T16:59:57.978Z,27.59
2022-08-11T17:02:54.069Z,27.50
2022-08-11T17:05:54.525Z,27.41
2022-08-11T17:08:57.609Z,27.33
2022-08-11T17:11:54.453Z,27.27
2022-08-11T17:14:37.740Z,27.15
2022-08-11T17:17:14.836Z,27.15
2022-08-11T17:20:38.569Z,27.13
2022-08-11T17:23:03.014Z,26.97
2022-08-11T17:25:59.223Z,26.95
2022-08-11T17:28:31.636Z,26.89
2022-08-11T17:31:24.215Z,26.80
2022-08-11T17:34:17.278Z,26.76
2022-08-11T17:36:51.322Z,26.72
2022-08-11T17:39:29.664Z,26.61
2022-08-11T17:42:20.685Z,26.53
2022-08-11T17:45:12.608Z,26.46
2022-08-11T17:48:05.821Z,26.39
2022-08-11T17:50:40.257Z,26.31
2022-08-11T17:53:33.688Z,26.26
2022-08-11T17:56:25.085Z,26.34
2022-08-11T17:59:17.068Z,26.22
2022-08-11T18:01:53.947Z,26.08
2022-08-11T18:04:30.615Z,26.06
2022-08-11T18:07:03.847Z,26.13
2022-08-11T18:09:55.148Z,26.03
2022-08-11T18:12:45.831Z,25.94
2022-08-11T18:15:37.034Z,25.86
2022-08-11T18:18:30.416Z,25.84
2022-08-11T18:21:24.555Z,25.74
2022-08-11T18:24:23.482Z,25.73
2022-08-11T18:27:17.734Z,25.66
2022-08-11T18:30:13.425Z,25.54
2022-08-11T18:33:45.151Z,25.51
2022-08-11T18:36:18.864Z,25.37
2022-08-11T18:39:12.531Z,25.28
2022-08-11T18:42:05.124Z,25.15
2022-08-11T18:44:57.246Z,25.07
2022-08-11T18:47:50.161Z,24.95
2022-08-11T18:50:50.321Z,24.86
2022-08-11T18:54:00.612Z,24.78
2022-08-11T18:56:54.069Z,24.63
2022-08-11T18:59:47.428Z,24.54
2022-08-11T19:02:48.883Z,24.49
2022-08-11T19:06:32.350Z,24.41
2022-08-11T19:08:56.074Z,24.29
2022-08-11T19:11:49.027Z,24.24
2022-08-11T19:14:44.669Z,24.20
2022-08-11T19:17:43.444Z,24.06
2022-08-11T19:20:39.576Z,23.98
2022-08-11T19:23:33.601Z,23.88
2022-08-11T19:26:26.430Z,23.80
2022-08-11T19:30:07.161Z,23.70
2022-08-11T19:32:31.204Z,23.73
2022-08-11T19:35:23.029Z,23.60
2022-08-11T19:38:14.375Z,23.58
2022-08-11T19:41:06.260Z,23.47
2022-08-11T19:43:58.027Z,23.41
2022-08-11T19:46:50.515Z,23.36
2022-08-11T19:49:43.644Z,23.28
2022-08-11T19:52:34.766Z,23.16
2022-08-11T19:55:27.209Z,23.11
2022-08-11T19:58:18.136Z,23.02
2022-08-11T20:01:08.522Z,22.94
2022-08-11T20:03:59.455Z,22.87
2022-08-11T20:06:54.374Z,22.79
2022-08-11T20:10:04.644Z,22.73
2022-08-11T20:12:57.827Z,22.70
2022-08-11T20:15:49.202Z,22.67
2022-08-11T20:18:43.034Z,22.55
2022-08-11T20:21:33.445Z,22.51
2022-08-11T20:24:26.675Z,22.47
2022-08-11T20:27:24.757Z,22.41
2022-08-11T20:30:17.452Z,22.41
2022-08-11T20:33:10.474Z,22.35
2022-08-11T20:36:01.004Z,22.25
2022-08-11T20:38:52.859Z,22.16
2022-08-11T20:41:58.687Z,22.11
2022-08-11T20:44:52.241Z,22.05
2022-08-11T20:47:58.898Z,22.01
2022-08-11T20:50:52.445Z,22.00
2022-08-11T20:53:45.233Z,22.00
2022-08-11T20:56:37.646Z,21.92
2022-08-11T20:59:33.348Z,21.86
2022-08-11T21:02:41.085Z,21.81
2022-08-11T21:06:09.490Z,21.78
2022-08-11T21:08:50.347Z,21.75
2022-08-11T21:11:41.862Z,21.71
2022-08-11T21:14:38.459Z,21.67
2022-08-11T21:17:37.744Z,21.60
2022-08-11T21:20:50.127Z,21.56
2022-08-11T21:23:42.105Z,21.51
2022-08-11T21:26:36.460Z,21.54
2022-08-11T21:29:28.749Z,21.48
2022-08-11T21:32:21.352Z,21.41
2022-08-11T21:35:12.682Z,21.37
2022-08-11T21:38:07.091Z,21.43
2022-08-11T21:41:00.040Z,21.38
2022-08-11T21:43:53.955Z,21.36
2022-08-11T21:46:45.744Z,21.33
2022-08-11T21:49:38.724Z,21.29
2022-08-11T21:52:30.316Z,21.24
2022-08-11T21:55:21.532Z,21.15
2022-08-11T21:58:13.544Z,21.12
2022-08-11T22:01:04.510Z,21.15
2022-08-11T22:03:57.194Z,21.03
2022-08-11T22:06:49.588Z,21.01
2022-08-11T22:09:40.042Z,20.97
2022-08-11T22:12:35.253Z,20.89
2022-08-11T22:15:33.797Z,20.87
2022-08-11T22:18:24.536Z,20.79
2022-08-11T22:21:18.033Z,20.76
2022-08-11T22:24:29.999Z,20.69
2022-08-11T22:27:21.345Z,20.70
2022-08-11T22:30:11.605Z,20.69
2022-08-11T22:33:03.157Z,20.66
2022-08-11T22:35:54.353Z,20.59
2022-08-11T22:38:46.153Z,20.51
2022-08-11T22:41:39.204Z,20.47
2022-08-11T22:44:30.706Z,20.43
2022-08-11T22:47:23.448Z,20.43
2022-08-11T22:50:19.810Z,20.44
2022-08-11T22:53:11.203Z,20.41
2022-08-11T22:56:02.120Z,20.35
2022-08-11T22:58:54.731Z,20.30
2022-08-11T23:01:56.176Z,20.27
2022-08-11T23:04:53.211Z,20.23
2022-08-11T23:07:51.479Z,20.16
2022-08-11T23:10:43.309Z,20.10
2022-08-11T23:13:34.282Z,20.06
2022-08-11T23:16:26.772Z,20.04
2022-08-11T23:20:07.706Z,20.02
2022-08-11T23:22:39.506Z,19.95
2022-08-11T23:25:40.068Z,19.92
2022-08-11T23:28:32.170Z,19.90
2022-08-11T23:31:23.413Z,19.87
2022-08-11T23:34:37.034Z,19.82
2022-08-11T23:37:27.814Z,19.79
2022-08-11T23:40:20.143Z,19.76
2022-08-11T23:43:12.298Z,19.74
2022-08-11T23:46:02.413Z,19.73
2022-08-11T23:48:55.760Z,19.70
2022-08-11T23:51:47.680Z,19.68
2022-08-11T23:54:38.468Z,19.66
2022-08-11T23:57:29.185Z,19.66
